sensor_id;sensor_type;location;lat;lon;timestamp;P1;durP1;ratioP1;P2;durP2;ratioP2
46022;SDS011;31756;47.936;16.224;2022-10-16T00:02:13;52.65;;;30.27;;
46022;SDS011;31756;47.936;16.224;2022-10-16T00:04:38;47.00;;;28.92;;
46022;SDS011;31756;47.936;16.224;2022-10-16T00:07:03;47.22;;;28.65;;
46022;SDS011;31756;47.936;16.224;2022-10-16T00:09:29;46.58;;;27.23;;
46022;SDS011;31756;47.936;16.224;2022-10-16T00:11:54;42.20;;;25.13;;
46022;SDS011;31756;47.936;16.224;2022-10-16T00:14:19;46.60;;;28.02;;
46022;SDS011;31756;47.936;16.224;2022-10-16T00:16:44;40.83;;;24.23;;
46022;SDS011;31756;47.936;16.224;2022-10-16T00:19:10;42.30;;;25.65;;
46022;SDS011;31756;47.936;16.224;2022-10-16T00:21:36;37.45;;;24.42;;
46022;SDS011;31756;47.936;16.224;2022-10-16T00:24:06;35.30;;;22.60;;
46022;SDS011;31756;47.936;16.224;2022-10-16T00:26:33;35.25;;;22.38;;
46022;SDS011;31756;47.936;16.224;2022-10-16T00:28:59;33.75;;;22.42;;
46022;SDS011;31756;47.936;16.224;2022-10-16T00:31:24;31.75;;;21.58;;
46022;SDS011;31756;47.936;16.224;2022-10-16T00:33:49;28.83;;;20.70;;
46022;SDS011;31756;47.936;16.224;2022-10-16T00:36:16;33.42;;;22.73;;
46022;SDS011;31756;47.936;16.224;2022-10-16T00:38:42;35.55;;;22.83;;
46022;SDS011;31756;47.936;16.224;2022-10-16T00:41:09;33.08;;;21.83;;
46022;SDS011;31756;47.936;16.224;2022-10-16T00:43:42;36.00;;;23.33;;
46022;SDS011;31756;47.936;16.224;2022-10-16T00:46:19;31.80;;;21.35;;
46022;SDS011;31756;47.936;16.224;2022-10-16T00:48:59;29.35;;;21.02;;
46022;SDS011;31756;47.936;16.224;2022-10-16T00:51:28;28.63;;;20.55;;
46022;SDS011;31756;47.936;16.224;2022-10-16T00:53:55;30.13;;;20.88;;
46022;SDS011;31756;47.936;16.224;2022-10-16T00:56:20;34.58;;;21.15;;
46022;SDS011;31756;47.936;16.224;2022-10-16T00:58:45;29.92;;;20.70;;
46022;SDS011;31756;47.936;16.224;2022-10-16T01:01:11;34.38;;;21.42;;
46022;SDS011;31756;47.936;16.224;2022-10-16T01:03:36;31.33;;;20.15;;
46022;SDS011;31756;47.936;16.224;2022-10-16T01:08:30;31.13;;;20.42;;
46022;SDS011;31756;47.936;16.224;2022-10-16T01:10:59;32.65;;;22.17;;
46022;SDS011;31756;47.936;16.224;2022-10-16T01:13:29;27.33;;;19.15;;
46022;SDS011;31756;47.936;16.224;2022-10-16T01:18:39;29.27;;;19.35;;
46022;SDS011;31756;47.936;16.224;2022-10-16T01:21:08;27.02;;;18.65;;
46022;SDS011;31756;47.936;16.224;2022-10-16T01:23:49;25.58;;;17.95;;
46022;SDS011;31756;47.936;16.224;2022-10-16T01:31:09;25.58;;;18.65;;
46022;SDS011;31756;47.936;16.224;2022-10-16T01:33:46;27.90;;;18.10;;
46022;SDS011;31756;47.936;16.224;2022-10-16T01:36:13;25.85;;;17.88;;
46022;SDS011;31756;47.936;16.224;2022-10-16T01:38:40;24.40;;;17.90;;
46022;SDS011;31756;47.936;16.224;2022-10-16T01:41:08;22.30;;;16.92;;
46022;SDS011;31756;47.936;16.224;2022-10-16T01:43:39;23.77;;;17.20;;
46022;SDS011;31756;47.936;16.224;2022-10-16T01:46:05;30.00;;;18.08;;
46022;SDS011;31756;47.936;16.224;2022-10-16T01:48:32;27.40;;;17.98;;
46022;SDS011;31756;47.936;16.224;2022-10-16T01:51:05;27.20;;;18.30;;
46022;SDS011;31756;47.936;16.224;2022-10-16T01:53:31;28.30;;;18.27;;
46022;SDS011;31756;47.936;16.224;2022-10-16T01:55:57;25.77;;;17.10;;
46022;SDS011;31756;47.936;16.224;2022-10-16T01:58:23;21.77;;;13.85;;
46022;SDS011;31756;47.936;16.224;2022-10-16T02:00:50;22.00;;;13.82;;
46022;SDS011;31756;47.936;16.224;2022-10-16T02:03:17;19.88;;;14.18;;
46022;SDS011;31756;47.936;16.224;2022-10-16T02:05:47;22.33;;;13.82;;
46022;SDS011;31756;47.936;16.224;2022-10-16T02:08:14;17.35;;;12.35;;
46022;SDS011;31756;47.936;16.224;2022-10-16T02:10:39;21.23;;;12.93;;
46022;SDS011;31756;47.936;16.224;2022-10-16T02:13:17;19.35;;;12.77;;
46022;SDS011;31756;47.936;16.224;2022-10-16T02:15:45;16.33;;;11.50;;
46022;SDS011;31756;47.936;16.224;2022-10-16T02:18:10;19.15;;;11.55;;
46022;SDS011;31756;47.936;16.224;2022-10-16T02:20:38;14.75;;;11.75;;
46022;SDS011;31756;47.936;16.224;2022-10-16T02:23:05;16.08;;;11.55;;
46022;SDS011;31756;47.936;16.224;2022-10-16T02:25:37;15.93;;;11.48;;
46022;SDS011;31756;47.936;16.224;2022-10-16T02:33:07;16.10;;;10.98;;
46022;SDS011;31756;47.936;16.224;2022-10-16T02:35:34;17.10;;;10.35;;
46022;SDS011;31756;47.936;16.224;2022-10-16T02:38:00;13.35;;;10.43;;
46022;SDS011;31756;47.936;16.224;2022-10-16T02:40:26;10.95;;;9.63;;
46022;SDS011;31756;47.936;16.224;2022-10-16T02:42:52;13.68;;;9.57;;
46022;SDS011;31756;47.936;16.224;2022-10-16T02:45:18;14.70;;;10.30;;
46022;SDS011;31756;47.936;16.224;2022-10-16T02:47:43;11.40;;;9.70;;
46022;SDS011;31756;47.936;16.224;2022-10-16T02:50:08;10.55;;;8.60;;
46022;SDS011;31756;47.936;16.224;2022-10-16T02:52:34;11.38;;;8.88;;
46022;SDS011;31756;47.936;16.224;2022-10-16T02:54:59;11.80;;;9.13;;
46022;SDS011;31756;47.936;16.224;2022-10-16T02:57:24;11.90;;;8.70;;
46022;SDS011;31756;47.936;16.224;2022-10-16T02:59:49;12.30;;;9.52;;
46022;SDS011;31756;47.936;16.224;2022-10-16T03:02:15;11.27;;;9.15;;
46022;SDS011;31756;47.936;16.224;2022-10-16T03:04:40;11.18;;;9.18;;
46022;SDS011;31756;47.936;16.224;2022-10-16T03:07:05;14.05;;;9.57;;
46022;SDS011;31756;47.936;16.224;2022-10-16T03:09:31;13.23;;;9.93;;
46022;SDS011;31756;47.936;16.224;2022-10-16T03:11:56;12.82;;;9.75;;
46022;SDS011;31756;47.936;16.224;2022-10-16T03:14:21;13.90;;;9.43;;
46022;SDS011;31756;47.936;16.224;2022-10-16T03:16:46;10.70;;;8.98;;
46022;SDS011;31756;47.936;16.224;2022-10-16T03:19:12;13.00;;;9.32;;
46022;SDS011;31756;47.936;16.224;2022-10-16T03:21:37;10.57;;;8.63;;
46022;SDS011;31756;47.936;16.224;2022-10-16T03:24:02;11.90;;;7.90;;
46022;SDS011;31756;47.936;16.224;2022-10-16T03:26:28;10.05;;;7.65;;
46022;SDS011;31756;47.936;16.224;2022-10-16T03:28:53;8.65;;;7.68;;
46022;SDS011;31756;47.936;16.224;2022-10-16T03:31:18;7.97;;;6.80;;
46022;SDS011;31756;47.936;16.224;2022-10-16T03:33:43;8.85;;;7.18;;
46022;SDS011;31756;47.936;16.224;2022-10-16T03:36:08;8.57;;;7.72;;
46022;SDS011;31756;47.936;16.224;2022-10-16T03:38:34;9.68;;;7.75;;
46022;SDS011;31756;47.936;16.224;2022-10-16T03:40:59;8.18;;;7.18;;
46022;SDS011;31756;47.936;16.224;2022-10-16T03:43:24;9.90;;;8.45;;
46022;SDS011;31756;47.936;16.224;2022-10-16T03:45:50;9.35;;;7.72;;
46022;SDS011;31756;47.936;16.224;2022-10-16T03:48:16;15.63;;;9.40;;
46022;SDS011;31756;47.936;16.224;2022-10-16T03:50:41;16.25;;;10.38;;
46022;SDS011;31756;47.936;16.224;2022-10-16T03:53:07;11.50;;;8.30;;
46022;SDS011;31756;47.936;16.224;2022-10-16T03:55:32;10.05;;;8.05;;
46022;SDS011;31756;47.936;16.224;2022-10-16T03:57:57;11.05;;;9.60;;
46022;SDS011;31756;47.936;16.224;2022-10-16T04:00:22;11.55;;;8.60;;
46022;SDS011;31756;47.936;16.224;2022-10-16T04:02:48;12.45;;;9.30;;
46022;SDS011;31756;47.936;16.224;2022-10-16T04:05:13;11.30;;;9.20;;
46022;SDS011;31756;47.936;16.224;2022-10-16T04:07:38;10.52;;;8.23;;
46022;SDS011;31756;47.936;16.224;2022-10-16T04:10:04;10.50;;;7.28;;
46022;SDS011;31756;47.936;16.224;2022-10-16T04:12:29;11.10;;;8.35;;
46022;SDS011;31756;47.936;16.224;2022-10-16T04:14:54;10.30;;;8.38;;
46022;SDS011;31756;47.936;16.224;2022-10-16T04:17:20;12.63;;;9.90;;
46022;SDS011;31756;47.936;16.224;2022-10-16T04:19:45;12.95;;;9.52;;
46022;SDS011;31756;47.936;16.224;2022-10-16T04:22:10;15.27;;;11.23;;
46022;SDS011;31756;47.936;16.224;2022-10-16T04:24:36;15.90;;;10.45;;
46022;SDS011;31756;47.936;16.224;2022-10-16T04:27:01;14.52;;;10.18;;
46022;SDS011;31756;47.936;16.224;2022-10-16T04:29:26;12.52;;;9.38;;
46022;SDS011;31756;47.936;16.224;2022-10-16T04:31:52;12.98;;;9.75;;
46022;SDS011;31756;47.936;16.224;2022-10-16T04:34:17;13.68;;;9.98;;
46022;SDS011;31756;47.936;16.224;2022-10-16T04:36:42;14.55;;;10.27;;
46022;SDS011;31756;47.936;16.224;2022-10-16T04:39:07;15.43;;;10.75;;
46022;SDS011;31756;47.936;16.224;2022-10-16T04:41:33;15.45;;;9.68;;
46022;SDS011;31756;47.936;16.224;2022-10-16T04:43:58;16.27;;;10.07;;
46022;SDS011;31756;47.936;16.224;2022-10-16T04:46:23;15.65;;;10.18;;
46022;SDS011;31756;47.936;16.224;2022-10-16T04:48:49;15.35;;;10.35;;
46022;SDS011;31756;47.936;16.224;2022-10-16T04:51:14;14.07;;;9.73;;
46022;SDS011;31756;47.936;16.224;2022-10-16T04:53:39;13.70;;;9.45;;
46022;SDS011;31756;47.936;16.224;2022-10-16T04:56:05;12.85;;;9.25;;
46022;SDS011;31756;47.936;16.224;2022-10-16T04:58:30;11.55;;;8.70;;
46022;SDS011;31756;47.936;16.224;2022-10-16T05:00:55;11.75;;;8.65;;
46022;SDS011;31756;47.936;16.224;2022-10-16T05:03:20;10.70;;;9.13;;
46022;SDS011;31756;47.936;16.224;2022-10-16T05:05:46;9.45;;;7.63;;
46022;SDS011;31756;47.936;16.224;2022-10-16T05:08:12;9.68;;;7.63;;
46022;SDS011;31756;47.936;16.224;2022-10-16T05:10:37;9.35;;;8.38;;
46022;SDS011;31756;47.936;16.224;2022-10-16T05:13:02;12.50;;;9.90;;
46022;SDS011;31756;47.936;16.224;2022-10-16T05:15:28;11.27;;;9.48;;
46022;SDS011;31756;47.936;16.224;2022-10-16T05:17:54;15.00;;;11.30;;
46022;SDS011;31756;47.936;16.224;2022-10-16T05:20:19;11.63;;;9.93;;
46022;SDS011;31756;47.936;16.224;2022-10-16T05:22:44;10.90;;;8.95;;
46022;SDS011;31756;47.936;16.224;2022-10-16T05:25:10;10.32;;;8.40;;
46022;SDS011;31756;47.936;16.224;2022-10-16T05:27:35;9.70;;;8.38;;
46022;SDS011;31756;47.936;16.224;2022-10-16T05:30:00;10.93;;;7.43;;
46022;SDS011;31756;47.936;16.224;2022-10-16T05:32:25;11.02;;;8.35;;
46022;SDS011;31756;47.936;16.224;2022-10-16T05:34:51;9.20;;;8.23;;
46022;SDS011;31756;47.936;16.224;2022-10-16T05:37:16;11.10;;;9.00;;
46022;SDS011;31756;47.936;16.224;2022-10-16T05:39:41;11.05;;;8.75;;
46022;SDS011;31756;47.936;16.224;2022-10-16T05:42:07;10.95;;;9.32;;
46022;SDS011;31756;47.936;16.224;2022-10-16T05:44:32;8.98;;;8.07;;
46022;SDS011;31756;47.936;16.224;2022-10-16T05:46:57;11.65;;;9.07;;
46022;SDS011;31756;47.936;16.224;2022-10-16T05:49:22;19.55;;;13.07;;
46022;SDS011;31756;47.936;16.224;2022-10-16T05:51:48;18.90;;;13.02;;
46022;SDS011;31756;47.936;16.224;2022-10-16T05:54:13;22.05;;;15.02;;
46022;SDS011;31756;47.936;16.224;2022-10-16T05:56:38;32.05;;;18.85;;
46022;SDS011;31756;47.936;16.224;2022-10-16T05:59:04;38.53;;;21.85;;
46022;SDS011;31756;47.936;16.224;2022-10-16T06:01:29;30.67;;;22.20;;
46022;SDS011;31756;47.936;16.224;2022-10-16T06:03:55;36.05;;;24.98;;
46022;SDS011;31756;47.936;16.224;2022-10-16T06:06:21;36.50;;;23.90;;
46022;SDS011;31756;47.936;16.224;2022-10-16T06:08:48;30.30;;;22.15;;
46022;SDS011;31756;47.936;16.224;2022-10-16T06:11:15;37.03;;;26.02;;
46022;SDS011;31756;47.936;16.224;2022-10-16T06:13:41;36.17;;;24.60;;
46022;SDS011;31756;47.936;16.224;2022-10-16T06:16:10;33.35;;;25.58;;
46022;SDS011;31756;47.936;16.224;2022-10-16T06:18:35;34.15;;;24.13;;
46022;SDS011;31756;47.936;16.224;2022-10-16T06:21:06;31.70;;;24.60;;
46022;SDS011;31756;47.936;16.224;2022-10-16T06:23:31;33.40;;;26.05;;
46022;SDS011;31756;47.936;16.224;2022-10-16T06:26:03;40.03;;;29.90;;
46022;SDS011;31756;47.936;16.224;2022-10-16T06:28:29;49.88;;;35.50;;
46022;SDS011;31756;47.936;16.224;2022-10-16T06:31:01;56.35;;;37.75;;
46022;SDS011;31756;47.936;16.224;2022-10-16T06:33:26;62.50;;;40.75;;
46022;SDS011;31756;47.936;16.224;2022-10-16T06:35:51;64.95;;;38.97;;
46022;SDS011;31756;47.936;16.224;2022-10-16T06:38:17;83.00;;;39.58;;
46022;SDS011;31756;47.936;16.224;2022-10-16T06:40:42;77.43;;;39.83;;
46022;SDS011;31756;47.936;16.224;2022-10-16T06:43:07;68.55;;;39.67;;
46022;SDS011;31756;47.936;16.224;2022-10-16T06:45:34;78.28;;;39.33;;
46022;SDS011;31756;47.936;16.224;2022-10-16T06:47:59;72.78;;;38.17;;
46022;SDS011;31756;47.936;16.224;2022-10-16T06:50:24;80.28;;;39.20;;
46022;SDS011;31756;47.936;16.224;2022-10-16T06:52:49;114.00;;;43.47;;
46022;SDS011;31756;47.936;16.224;2022-10-16T06:55:15;76.53;;;39.25;;
46022;SDS011;31756;47.936;16.224;2022-10-16T06:57:41;132.50;;;42.42;;
46022;SDS011;31756;47.936;16.224;2022-10-16T07:00:07;91.28;;;38.88;;
46022;SDS011;31756;47.936;16.224;2022-10-16T07:02:32;52.65;;;36.47;;
46022;SDS011;31756;47.936;16.224;2022-10-16T07:04:57;64.82;;;40.10;;
46022;SDS011;31756;47.936;16.224;2022-10-16T07:07:23;43.58;;;36.00;;
46022;SDS011;31756;47.936;16.224;2022-10-16T07:09:49;47.80;;;38.45;;
46022;SDS011;31756;47.936;16.224;2022-10-16T07:12:15;59.45;;;39.70;;
46022;SDS011;31756;47.936;16.224;2022-10-16T07:14:40;114.03;;;38.78;;
46022;SDS011;31756;47.936;16.224;2022-10-16T07:17:05;112.07;;;39.13;;
46022;SDS011;31756;47.936;16.224;2022-10-16T07:19:30;64.65;;;37.00;;
46022;SDS011;31756;47.936;16.224;2022-10-16T07:21:56;57.65;;;38.40;;
46022;SDS011;31756;47.936;16.224;2022-10-16T07:24:22;68.35;;;39.72;;
46022;SDS011;31756;47.936;16.224;2022-10-16T07:26:47;50.60;;;39.00;;
46022;SDS011;31756;47.936;16.224;2022-10-16T07:29:17;83.13;;;44.25;;
46022;SDS011;31756;47.936;16.224;2022-10-16T07:31:42;58.08;;;40.50;;
46022;SDS011;31756;47.936;16.224;2022-10-16T07:34:08;49.75;;;38.00;;
46022;SDS011;31756;47.936;16.224;2022-10-16T07:36:34;52.42;;;39.05;;
46022;SDS011;31756;47.936;16.224;2022-10-16T07:38:59;49.03;;;40.08;;
46022;SDS011;31756;47.936;16.224;2022-10-16T07:41:25;52.35;;;41.03;;
46022;SDS011;31756;47.936;16.224;2022-10-16T07:43:51;79.35;;;39.97;;
46022;SDS011;31756;47.936;16.224;2022-10-16T07:46:17;81.18;;;40.42;;
46022;SDS011;31756;47.936;16.224;2022-10-16T07:48:42;66.40;;;38.00;;
46022;SDS011;31756;47.936;16.224;2022-10-16T07:51:11;62.53;;;39.63;;
46022;SDS011;31756;47.936;16.224;2022-10-16T07:53:36;49.75;;;40.28;;
46022;SDS011;31756;47.936;16.224;2022-10-16T07:56:02;72.32;;;41.28;;
46022;SDS011;31756;47.936;16.224;2022-10-16T07:58:28;51.42;;;38.65;;
46022;SDS011;31756;47.936;16.224;2022-10-16T08:00:53;51.60;;;36.75;;
46022;SDS011;31756;47.936;16.224;2022-10-16T08:03:18;45.97;;;34.92;;
46022;SDS011;31756;47.936;16.224;2022-10-16T08:05:44;45.40;;;37.17;;
46022;SDS011;31756;47.936;16.224;2022-10-16T08:08:12;64.57;;;40.47;;
46022;SDS011;31756;47.936;16.224;2022-10-16T08:10:37;71.13;;;40.90;;
46022;SDS011;31756;47.936;16.224;2022-10-16T08:13:03;82.38;;;40.70;;
46022;SDS011;31756;47.936;16.224;2022-10-16T08:15:28;81.15;;;39.67;;
46022;SDS011;31756;47.936;16.224;2022-10-16T08:20:21;47.35;;;37.63;;
46022;SDS011;31756;47.936;16.224;2022-10-16T08:22:46;44.67;;;37.10;;
46022;SDS011;31756;47.936;16.224;2022-10-16T08:25:12;47.67;;;37.13;;
46022;SDS011;31756;47.936;16.224;2022-10-16T08:27:37;51.13;;;40.05;;
46022;SDS011;31756;47.936;16.224;2022-10-16T08:30:02;45.58;;;35.28;;
46022;SDS011;31756;47.936;16.224;2022-10-16T08:32:28;48.03;;;37.47;;
46022;SDS011;31756;47.936;16.224;2022-10-16T08:34:53;64.00;;;39.03;;
46022;SDS011;31756;47.936;16.224;2022-10-16T08:37:18;71.13;;;36.30;;
46022;SDS011;31756;47.936;16.224;2022-10-16T08:39:43;73.93;;;37.97;;
46022;SDS011;31756;47.936;16.224;2022-10-16T08:42:11;65.55;;;38.78;;
46022;SDS011;31756;47.936;16.224;2022-10-16T08:49:34;60.88;;;40.90;;
46022;SDS011;31756;47.936;16.224;2022-10-16T08:52:00;53.75;;;39.33;;
46022;SDS011;31756;47.936;16.224;2022-10-16T08:56:50;48.03;;;39.35;;
46022;SDS011;31756;47.936;16.224;2022-10-16T08:59:16;61.97;;;38.55;;
46022;SDS011;31756;47.936;16.224;2022-10-16T09:01:42;46.85;;;37.47;;
46022;SDS011;31756;47.936;16.224;2022-10-16T09:06:46;50.97;;;38.13;;
46022;SDS011;31756;47.936;16.224;2022-10-16T09:12:01;48.75;;;40.08;;
46022;SDS011;31756;47.936;16.224;2022-10-16T09:17:00;47.03;;;38.10;;
46022;SDS011;31756;47.936;16.224;2022-10-16T09:21:53;47.85;;;35.90;;
46022;SDS011;31756;47.936;16.224;2022-10-16T09:24:23;48.90;;;37.67;;
46022;SDS011;31756;47.936;16.224;2022-10-16T09:26:50;47.63;;;38.42;;
46022;SDS011;31756;47.936;16.224;2022-10-16T09:29:15;41.95;;;34.30;;
46022;SDS011;31756;47.936;16.224;2022-10-16T09:31:41;43.50;;;35.08;;
46022;SDS011;31756;47.936;16.224;2022-10-16T09:34:08;40.05;;;31.65;;
46022;SDS011;31756;47.936;16.224;2022-10-16T09:36:40;45.15;;;34.28;;
46022;SDS011;31756;47.936;16.224;2022-10-16T09:39:07;48.42;;;37.47;;
46022;SDS011;31756;47.936;16.224;2022-10-16T09:41:40;47.95;;;36.15;;
46022;SDS011;31756;47.936;16.224;2022-10-16T09:47:00;47.13;;;34.83;;
46022;SDS011;31756;47.936;16.224;2022-10-16T09:49:26;49.28;;;36.35;;
46022;SDS011;31756;47.936;16.224;2022-10-16T09:52:02;52.78;;;39.05;;
46022;SDS011;31756;47.936;16.224;2022-10-16T09:54:28;55.03;;;40.67;;
46022;SDS011;31756;47.936;16.224;2022-10-16T09:57:03;49.67;;;37.05;;
46022;SDS011;31756;47.936;16.224;2022-10-16T10:01:56;49.13;;;36.00;;
46022;SDS011;31756;47.936;16.224;2022-10-16T10:04:23;50.20;;;37.50;;
46022;SDS011;31756;47.936;16.224;2022-10-16T10:06:51;49.28;;;38.20;;
46022;SDS011;31756;47.936;16.224;2022-10-16T10:14:17;53.42;;;39.45;;
46022;SDS011;31756;47.936;16.224;2022-10-16T10:16:43;50.58;;;39.08;;
46022;SDS011;31756;47.936;16.224;2022-10-16T10:19:15;46.55;;;37.90;;
46022;SDS011;31756;47.936;16.224;2022-10-16T10:21:41;45.78;;;37.92;;
46022;SDS011;31756;47.936;16.224;2022-10-16T10:24:10;48.95;;;36.42;;
46022;SDS011;31756;47.936;16.224;2022-10-16T10:26:35;49.33;;;37.10;;
46022;SDS011;31756;47.936;16.224;2022-10-16T10:31:33;53.35;;;40.33;;
46022;SDS011;31756;47.936;16.224;2022-10-16T10:36:37;54.58;;;42.70;;
46022;SDS011;31756;47.936;16.224;2022-10-16T10:39:08;57.28;;;43.20;;
46022;SDS011;31756;47.936;16.224;2022-10-16T10:46:50;55.55;;;43.38;;
46022;SDS011;31756;47.936;16.224;2022-10-16T10:56:51;48.50;;;37.75;;
46022;SDS011;31756;47.936;16.224;2022-10-16T10:59:39;54.03;;;42.28;;
46022;SDS011;31756;47.936;16.224;2022-10-16T11:07:17;51.65;;;40.78;;
46022;SDS011;31756;47.936;16.224;2022-10-16T11:09:51;54.30;;;39.95;;
46022;SDS011;31756;47.936;16.224;2022-10-16T11:12:22;56.28;;;41.47;;
46022;SDS011;31756;47.936;16.224;2022-10-16T11:20:17;52.15;;;41.00;;
46022;SDS011;31756;47.936;16.224;2022-10-16T11:27:53;54.67;;;42.55;;
46022;SDS011;31756;47.936;16.224;2022-10-16T11:32:50;50.35;;;39.78;;
46022;SDS011;31756;47.936;16.224;2022-10-16T11:35:19;48.45;;;37.40;;
46022;SDS011;31756;47.936;16.224;2022-10-16T11:37:47;51.38;;;39.72;;
46022;SDS011;31756;47.936;16.224;2022-10-16T11:40:19;49.20;;;38.90;;
46022;SDS011;31756;47.936;16.224;2022-10-16T11:42:48;42.35;;;36.15;;
46022;SDS011;31756;47.936;16.224;2022-10-16T11:47:43;45.75;;;36.70;;
46022;SDS011;31756;47.936;16.224;2022-10-16T11:55:20;51.95;;;39.50;;
46022;SDS011;31756;47.936;16.224;2022-10-16T11:57:49;49.78;;;39.25;;
46022;SDS011;31756;47.936;16.224;2022-10-16T12:00:28;49.70;;;39.13;;
46022;SDS011;31756;47.936;16.224;2022-10-16T12:10:28;54.97;;;43.63;;
46022;SDS011;31756;47.936;16.224;2022-10-16T12:12:54;56.85;;;45.05;;
46022;SDS011;31756;47.936;16.224;2022-10-16T12:15:26;51.35;;;41.22;;
46022;SDS011;31756;47.936;16.224;2022-10-16T12:17:52;54.17;;;40.30;;
46022;SDS011;31756;47.936;16.224;2022-10-16T12:22:57;57.63;;;45.10;;
46022;SDS011;31756;47.936;16.224;2022-10-16T12:25:25;60.47;;;45.15;;
46022;SDS011;31756;47.936;16.224;2022-10-16T12:27:55;58.03;;;44.88;;
46022;SDS011;31756;47.936;16.224;2022-10-16T12:30:22;57.30;;;43.22;;
46022;SDS011;31756;47.936;16.224;2022-10-16T12:32:55;55.55;;;44.03;;
46022;SDS011;31756;47.936;16.224;2022-10-16T12:35:22;58.05;;;43.50;;
46022;SDS011;31756;47.936;16.224;2022-10-16T12:37:48;55.58;;;43.45;;
46022;SDS011;31756;47.936;16.224;2022-10-16T12:40:30;57.20;;;43.60;;
46022;SDS011;31756;47.936;16.224;2022-10-16T12:42:56;52.85;;;41.80;;
46022;SDS011;31756;47.936;16.224;2022-10-16T12:47:50;57.88;;;43.45;;
46022;SDS011;31756;47.936;16.224;2022-10-16T12:50:23;54.60;;;43.35;;
46022;SDS011;31756;47.936;16.224;2022-10-16T12:52:49;52.97;;;42.03;;
46022;SDS011;31756;47.936;16.224;2022-10-16T12:55:16;55.20;;;43.80;;
46022;SDS011;31756;47.936;16.224;2022-10-16T13:00:28;54.22;;;43.03;;
46022;SDS011;31756;47.936;16.224;2022-10-16T13:16:12;53.30;;;41.35;;
46022;SDS011;31756;47.936;16.224;2022-10-16T13:18:43;54.70;;;44.55;;
46022;SDS011;31756;47.936;16.224;2022-10-16T13:21:24;56.83;;;44.80;;
46022;SDS011;31756;47.936;16.224;2022-10-16T13:28:44;55.42;;;45.13;;
46022;SDS011;31756;47.936;16.224;2022-10-16T13:31:13;56.03;;;44.33;;
46022;SDS011;31756;47.936;16.224;2022-10-16T13:33:41;53.58;;;43.17;;
46022;SDS011;31756;47.936;16.224;2022-10-16T13:36:17;54.65;;;44.70;;
46022;SDS011;31756;47.936;16.224;2022-10-16T13:38:43;54.72;;;44.03;;
46022;SDS011;31756;47.936;16.224;2022-10-16T13:41:16;55.53;;;43.72;;
46022;SDS011;31756;47.936;16.224;2022-10-16T13:43:42;53.53;;;43.53;;
46022;SDS011;31756;47.936;16.224;2022-10-16T13:48:39;57.55;;;45.08;;
46022;SDS011;31756;47.936;16.224;2022-10-16T13:53:33;53.80;;;44.47;;
46022;SDS011;31756;47.936;16.224;2022-10-16T13:56:02;54.42;;;44.25;;
46022;SDS011;31756;47.936;16.224;2022-10-16T13:58:28;51.42;;;42.33;;
46022;SDS011;31756;47.936;16.224;2022-10-16T14:01:00;52.50;;;43.75;;
46022;SDS011;31756;47.936;16.224;2022-10-16T14:03:26;53.90;;;43.45;;
46022;SDS011;31756;47.936;16.224;2022-10-16T14:05:53;52.85;;;45.03;;
46022;SDS011;31756;47.936;16.224;2022-10-16T14:08:20;55.35;;;45.95;;
46022;SDS011;31756;47.936;16.224;2022-10-16T14:10:49;52.05;;;43.78;;
46022;SDS011;31756;47.936;16.224;2022-10-16T14:13:16;54.67;;;45.63;;
46022;SDS011;31756;47.936;16.224;2022-10-16T14:15:45;54.80;;;43.88;;
46022;SDS011;31756;47.936;16.224;2022-10-16T14:18:15;46.70;;;41.28;;
46022;SDS011;31756;47.936;16.224;2022-10-16T14:20:42;51.03;;;40.08;;
46022;SDS011;31756;47.936;16.224;2022-10-16T14:23:50;50.45;;;40.80;;
46022;SDS011;31756;47.936;16.224;2022-10-16T14:29:01;51.67;;;43.65;;
46022;SDS011;31756;47.936;16.224;2022-10-16T14:33:52;44.20;;;38.60;;
46022;SDS011;31756;47.936;16.224;2022-10-16T14:36:17;48.47;;;40.10;;
46022;SDS011;31756;47.936;16.224;2022-10-16T14:38:56;50.30;;;42.35;;
46022;SDS011;31756;47.936;16.224;2022-10-16T14:41:22;48.60;;;40.72;;
46022;SDS011;31756;47.936;16.224;2022-10-16T14:43:50;47.60;;;41.70;;
46022;SDS011;31756;47.936;16.224;2022-10-16T14:46:17;47.28;;;39.55;;
46022;SDS011;31756;47.936;16.224;2022-10-16T14:48:45;55.28;;;44.92;;
46022;SDS011;31756;47.936;16.224;2022-10-16T14:51:14;51.53;;;43.58;;
46022;SDS011;31756;47.936;16.224;2022-10-16T14:53:40;46.78;;;40.75;;
46022;SDS011;31756;47.936;16.224;2022-10-16T14:56:06;46.42;;;38.67;;
46022;SDS011;31756;47.936;16.224;2022-10-16T14:58:31;50.22;;;41.40;;
46022;SDS011;31756;47.936;16.224;2022-10-16T15:00:57;45.67;;;39.90;;
46022;SDS011;31756;47.936;16.224;2022-10-16T15:03:22;46.28;;;39.92;;
46022;SDS011;31756;47.936;16.224;2022-10-16T15:05:47;47.10;;;40.13;;
46022;SDS011;31756;47.936;16.224;2022-10-16T15:08:13;49.30;;;41.70;;
46022;SDS011;31756;47.936;16.224;2022-10-16T15:10:40;45.67;;;38.97;;
46022;SDS011;31756;47.936;16.224;2022-10-16T15:13:05;48.10;;;40.45;;
46022;SDS011;31756;47.936;16.224;2022-10-16T15:15:37;55.92;;;46.60;;
46022;SDS011;31756;47.936;16.224;2022-10-16T15:18:04;52.47;;;44.92;;
46022;SDS011;31756;47.936;16.224;2022-10-16T15:20:30;44.03;;;36.42;;
46022;SDS011;31756;47.936;16.224;2022-10-16T15:22:58;48.40;;;40.80;;
46022;SDS011;31756;47.936;16.224;2022-10-16T15:28:07;51.67;;;42.70;;
46022;SDS011;31756;47.936;16.224;2022-10-16T15:30:33;57.65;;;47.05;;
46022;SDS011;31756;47.936;16.224;2022-10-16T15:32:59;52.50;;;42.88;;
46022;SDS011;31756;47.936;16.224;2022-10-16T15:35:24;53.92;;;44.08;;
46022;SDS011;31756;47.936;16.224;2022-10-16T15:37:49;60.63;;;46.95;;
46022;SDS011;31756;47.936;16.224;2022-10-16T15:40:15;58.65;;;47.67;;
46022;SDS011;31756;47.936;16.224;2022-10-16T15:42:40;55.53;;;44.42;;
46022;SDS011;31756;47.936;16.224;2022-10-16T15:45:06;51.30;;;42.03;;
46022;SDS011;31756;47.936;16.224;2022-10-16T15:47:31;53.10;;;43.63;;
46022;SDS011;31756;47.936;16.224;2022-10-16T15:49:57;47.95;;;39.50;;
46022;SDS011;31756;47.936;16.224;2022-10-16T15:52:22;49.17;;;39.20;;
46022;SDS011;31756;47.936;16.224;2022-10-16T15:54:48;50.80;;;41.25;;
46022;SDS011;31756;47.936;16.224;2022-10-16T15:57:13;46.78;;;41.13;;
46022;SDS011;31756;47.936;16.224;2022-10-16T15:59:38;75.20;;;67.78;;
46022;SDS011;31756;47.936;16.224;2022-10-16T16:02:03;55.55;;;49.58;;
46022;SDS011;31756;47.936;16.224;2022-10-16T16:04:29;49.47;;;43.58;;
46022;SDS011;31756;47.936;16.224;2022-10-16T16:06:55;58.85;;;46.90;;
46022;SDS011;31756;47.936;16.224;2022-10-16T16:09:20;58.40;;;47.38;;
46022;SDS011;31756;47.936;16.224;2022-10-16T16:11:45;53.30;;;43.08;;
46022;SDS011;31756;47.936;16.224;2022-10-16T16:14:12;55.90;;;46.70;;
46022;SDS011;31756;47.936;16.224;2022-10-16T16:16:37;59.58;;;46.08;;
46022;SDS011;31756;47.936;16.224;2022-10-16T16:19:03;56.85;;;46.63;;
46022;SDS011;31756;47.936;16.224;2022-10-16T16:21:29;55.17;;;44.38;;
46022;SDS011;31756;47.936;16.224;2022-10-16T16:23:55;55.92;;;44.97;;
46022;SDS011;31756;47.936;16.224;2022-10-16T16:26:23;53.33;;;44.45;;